createdAt,value
2023-03-03T00:01:29.709Z,54.50
2023-03-03T00:06:33.325Z,54.30
2023-03-03T00:11:38.214Z,54.30
2023-03-03T00:16:42.199Z,54.50
2023-03-03T00:21:47.798Z,54.40
2023-03-03T00:26:55.627Z,54.60
2023-03-03T00:32:33.973Z,54.60
2023-03-03T00:37:42.497Z,54.80
2023-03-03T00:42:50.900Z,54.50
2023-03-03T00:47:54.551Z,54.80
2023-03-03T00:53:04.659Z,54.70
2023-03-03T00:58:09.598Z,55.00
2023-03-03T01:03:20.002Z,54.90
2023-03-03T01:08:24.050Z,54.90
2023-03-03T01:13:31.495Z,55.60
2023-03-03T01:18:36.235Z,55.10
2023-03-03T01:23:40.231Z,55.10
2023-03-03T01:28:45.060Z,55.00
2023-03-03T01:33:48.415Z,55.10
2023-03-03T01:38:52.218Z,55.20
2023-03-03T01:43:57.515Z,55.20
2023-03-03T01:49:04.198Z,55.30
2023-03-03T01:54:13.686Z,55.50
2023-03-03T01:59:22.607Z,55.50
2023-03-03T02:04:27.857Z,55.50
2023-03-03T02:09:38.716Z,55.40
2023-03-03T02:14:44.064Z,55.70
2023-03-03T02:19:56.222Z,55.60
2023-03-03T02:25:03.645Z,56.50
2023-03-03T02:30:15.920Z,55.80
2023-03-03T02:35:39.329Z,56.00
2023-03-03T02:40:50.941Z,56.10
2023-03-03T02:45:55.964Z,55.90
2023-03-03T02:51:02.047Z,55.80
2023-03-03T02:56:07.485Z,55.80
2023-03-03T03:01:12.666Z,55.90
2023-03-03T03:06:16.666Z,56.00
2023-03-03T03:11:20.462Z,56.10
2023-03-03T03:16:26.234Z,56.10
2023-03-03T03:21:30.150Z,56.30
2023-03-03T03:26:34.841Z,56.20
2023-03-03T03:31:41.052Z,56.20
2023-03-03T03:36:47.093Z,56.30
2023-03-03T03:41:52.851Z,56.20
2023-03-03T03:46:58.031Z,56.30
2023-03-03T03:52:02.564Z,56.40
2023-03-03T03:57:09.148Z,56.40
2023-03-03T04:02:14.803Z,56.30
2023-03-03T04:07:18.556Z,56.20
2023-03-03T04:12:22.085Z,56.20
2023-03-03T04:17:26.986Z,56.20
2023-03-03T04:22:34.107Z,56.30
2023-03-03T04:27:38.537Z,56.30
2023-03-03T04:32:44.308Z,56.40
2023-03-03T04:37:49.718Z,56.50
2023-03-03T04:42:53.845Z,56.40
2023-03-03T04:47:59.404Z,56.50
2023-03-03T04:53:03.111Z,56.60
2023-03-03T04:58:06.895Z,56.50
2023-03-03T05:03:13.438Z,56.60
2023-03-03T05:08:19.128Z,56.70
2023-03-03T05:13:22.847Z,56.60
2023-03-03T05:18:35.446Z,56.70
2023-03-03T05:23:39.500Z,56.90
2023-03-03T05:28:42.854Z,56.70
2023-03-03T05:33:47.659Z,56.70
2023-03-03T05:38:51.109Z,56.70
2023-03-03T05:43:54.872Z,56.70
2023-03-03T05:49:00.069Z,56.80
2023-03-03T05:54:03.510Z,56.90
2023-03-03T05:59:06.968Z,57.10
2023-03-03T06:04:12.053Z,57.10
2023-03-03T06:09:15.717Z,57.10
2023-03-03T06:14:19.174Z,57.00
2023-03-03T06:19:24.122Z,57.10
2023-03-03T06:24:30.498Z,57.30
2023-03-03T06:29:33.964Z,57.20
2023-03-03T06:34:38.842Z,57.20
2023-03-03T06:39:42.559Z,57.30
2023-03-03T06:44:46.161Z,57.30
2023-03-03T06:49:50.884Z,57.30
2023-03-03T06:54:56.770Z,57.50
2023-03-03T07:00:21.552Z,57.50
2023-03-03T07:05:29.115Z,57.80
2023-03-03T07:10:32.679Z,57.70
2023-03-03T07:15:37.850Z,57.50
2023-03-03T07:20:42.935Z,57.50
2023-03-03T07:25:47.070Z,57.60
2023-03-03T07:30:50.612Z,57.50
2023-03-03T07:35:57.836Z,57.50
2023-03-03T07:41:03.263Z,57.60
2023-03-03T07:46:29.440Z,57.60
2023-03-03T07:51:42.374Z,59.70
2023-03-03T07:56:46.307Z,58.10
2023-03-03T08:01:55.360Z,57.80
2023-03-03T08:07:01.457Z,57.80
2023-03-03T08:12:35.184Z,57.60
2023-03-03T08:17:40.794Z,57.70
2023-03-03T08:22:45.752Z,57.50
2023-03-03T08:27:49.356Z,57.50
2023-03-03T08:32:52.838Z,57.50
2023-03-03T08:37:58.132Z,57.40
2023-03-03T08:43:01.971Z,57.50
2023-03-03T08:48:06.316Z,57.50
2023-03-03T08:53:11.908Z,57.40
2023-03-03T08:58:16.249Z,57.40
2023-03-03T09:03:19.664Z,57.40
2023-03-03T09:08:24.521Z,57.40
2023-03-03T09:13:30.246Z,57.40
2023-03-03T09:18:37.634Z,57.40
2023-03-03T09:23:43.769Z,57.30
2023-03-03T09:28:47.111Z,57.20
2023-03-03T09:33:52.140Z,57.40
2023-03-03T09:38:57.998Z,57.20
2023-03-03T09:44:23.858Z,57.00
2023-03-03T09:49:34.089Z,56.70
2023-03-03T09:54:54.310Z,57.30
2023-03-03T10:00:11.276Z,56.40
2023-03-03T10:05:30.622Z,56.60
2023-03-03T10:10:50.071Z,56.00
2023-03-03T10:16:05.202Z,55.70
2023-03-03T10:21:13.010Z,55.90
2023-03-03T10:26:43.913Z,55.50
2023-03-03T10:32:02.413Z,55.20
2023-03-03T10:37:12.364Z,55.00
2023-03-03T10:42:29.612Z,55.00
2023-03-03T10:47:51.691Z,54.60
2023-03-03T10:53:04.796Z,54.20
2023-03-03T10:58:24.140Z,54.40
2023-03-03T11:04:04.996Z,53.70
2023-03-03T11:09:18.636Z,53.10
2023-03-03T11:14:31.364Z,53.20
2023-03-03T11:20:02.185Z,52.90
2023-03-03T11:25:22.643Z,52.10
2023-03-03T11:30:41.021Z,52.30
2023-03-03T11:35:50.430Z,51.80
2023-03-03T11:40:57.796Z,52.00
2023-03-03T11:46:08.646Z,52.50
2023-03-03T11:51:17.043Z,51.10
2023-03-03T11:56:26.363Z,51.20
2023-03-03T12:01:37.983Z,50.80
2023-03-03T12:06:54.836Z,50.40
2023-03-03T12:12:04.712Z,49.80
2023-03-03T12:17:18.568Z,50.30
2023-03-03T12:22:34.143Z,49.80
2023-03-03T12:27:44.427Z,49.60
2023-03-03T12:33:05.804Z,49.70
2023-03-03T12:38:18.109Z,49.10
2023-03-03T12:43:37.917Z,49.10
2023-03-03T12:48:45.220Z,48.60
2023-03-03T12:54:07.585Z,48.90
2023-03-03T12:59:18.348Z,48.50
2023-03-03T13:04:35.611Z,48.80
2023-03-03T13:09:50.535Z,48.20
2023-03-03T13:15:01.535Z,52.50
2023-03-03T13:20:18.640Z,49.80
2023-03-03T13:25:40.836Z,49.50
2023-03-03T13:30:49.923Z,49.00
2023-03-03T13:35:58.012Z,49.20
2023-03-03T13:41:11.790Z,49.20
2023-03-03T13:46:21.933Z,49.00
2023-03-03T13:51:37.589Z,49.40
2023-03-03T13:57:01.637Z,49.10
2023-03-03T14:02:20.770Z,49.10
2023-03-03T14:07:34.944Z,49.20
2023-03-03T14:12:46.304Z,49.30
2023-03-03T14:18:03.539Z,49.40
2023-03-03T14:23:14.749Z,49.30
2023-03-03T14:28:21.388Z,49.50
2023-03-03T14:33:31.011Z,49.60
2023-03-03T14:38:47.870Z,49.40
2023-03-03T14:43:59.690Z,49.20
2023-03-03T14:49:05.200Z,49.30
2023-03-03T14:54:20.636Z,49.70
2023-03-03T14:59:27.054Z,49.50
2023-03-03T15:04:31.997Z,49.70
2023-03-03T15:09:43.412Z,49.80
2023-03-03T15:14:48.588Z,49.40
2023-03-03T15:20:06.281Z,49.70
2023-03-03T15:25:22.840Z,49.30
2023-03-03T15:30:33.266Z,49.10
2023-03-03T15:35:45.984Z,49.10
2023-03-03T15:40:58.500Z,48.90
2023-03-03T15:46:13.605Z,49.00
2023-03-03T15:51:31.527Z,48.50
2023-03-03T15:56:43.351Z,48.50
2023-03-03T16:01:57.466Z,48.50
2023-03-03T16:07:07.926Z,48.20
2023-03-03T16:12:21.944Z,48.20
2023-03-03T16:17:32.649Z,48.20
2023-03-03T16:23:01.984Z,48.10
2023-03-03T16:28:11.893Z,47.80
2023-03-03T16:33:25.017Z,48.00
2023-03-03T16:38:34.671Z,47.90
2023-03-03T16:43:48.748Z,48.10
2023-03-03T16:49:01.899Z,47.80
2023-03-03T16:54:11.686Z,48.10
2023-03-03T16:59:42.117Z,48.10
2023-03-03T17:04:49.534Z,47.80
2023-03-03T17:10:05.316Z,48.20
2023-03-03T17:15:23.246Z,47.90
2023-03-03T17:20:36.554Z,48.10
2023-03-03T17:25:47.897Z,47.90
2023-03-03T17:31:00.272Z,47.80
2023-03-03T17:36:17.363Z,47.80
2023-03-03T17:41:30.426Z,47.80
2023-03-03T17:46:43.044Z,47.80
2023-03-03T17:52:15.059Z,47.90
2023-03-03T17:57:36.201Z,47.60
2023-03-03T18:03:17.300Z,47.80
2023-03-03T18:08:42.193Z,47.60
2023-03-03T18:14:01.884Z,47.70
2023-03-03T18:19:24.981Z,47.70
2023-03-03T18:24:35.316Z,47.60
2023-03-03T18:29:39.857Z,47.90
2023-03-03T18:34:46.477Z,48.00
2023-03-03T18:40:18.744Z,47.90
2023-03-03T18:45:51.560Z,48.30
2023-03-03T18:50:58.018Z,48.00
2023-03-03T18:56:04.428Z,48.30
2023-03-03T19:01:31.636Z,48.30
2023-03-03T19:07:09.699Z,48.30
2023-03-03T19:12:19.788Z,48.40
2023-03-03T19:17:46.422Z,48.70
2023-03-03T19:22:53.166Z,48.80
2023-03-03T19:28:16.199Z,48.90
2023-03-03T19:33:44.112Z,49.00
2023-03-03T19:39:02.814Z,49.10
2023-03-03T19:44:21.038Z,49.20
2023-03-03T19:49:41.668Z,50.00
2023-03-03T19:55:01.604Z,49.40
2023-03-03T20:00:20.032Z,50.30
2023-03-03T20:05:38.427Z,49.60
2023-03-03T20:10:52.118Z,49.70
2023-03-03T20:16:13.038Z,49.80
2023-03-03T20:21:25.599Z,49.80
2023-03-03T20:26:35.778Z,49.90
2023-03-03T20:31:51.836Z,50.00
2023-03-03T20:37:19.182Z,50.00
2023-03-03T20:42:35.057Z,50.70
2023-03-03T20:47:52.051Z,50.00
2023-03-03T20:53:09.393Z,50.10
2023-03-03T20:58:21.688Z,55.50
2023-03-03T21:03:34.781Z,51.90
2023-03-03T21:08:44.715Z,51.30
2023-03-03T21:13:52.373Z,51.10
2023-03-03T21:19:04.188Z,50.90
2023-03-03T21:24:08.614Z,50.90
2023-03-03T21:29:18.795Z,50.90
2023-03-03T21:34:28.743Z,51.00
2023-03-03T21:39:33.956Z,51.10
2023-03-03T21:44:40.883Z,51.10
2023-03-03T21:49:47.113Z,51.90
2023-03-03T21:54:52.585Z,52.00
2023-03-03T21:59:56.095Z,51.30
2023-03-03T22:05:02.643Z,51.30
2023-03-03T22:10:07.756Z,51.40
2023-03-03T22:15:11.830Z,51.50
2023-03-03T22:20:17.109Z,51.40
2023-03-03T22:25:20.535Z,51.60
2023-03-03T22:30:23.870Z,51.50
2023-03-03T22:35:28.753Z,51.60
2023-03-03T22:40:32.162Z,51.80
2023-03-03T22:45:35.526Z,51.80
2023-03-03T22:50:42.876Z,51.90
2023-03-03T22:55:46.210Z,52.20
2023-03-03T23:00:49.957Z,52.10
2023-03-03T23:05:54.970Z,52.10
2023-03-03T23:10:58.312Z,52.30
2023-03-03T23:16:03.445Z,52.30
2023-03-03T23:21:08.263Z,52.40
2023-03-03T23:26:11.722Z,52.60
2023-03-03T23:31:15.263Z,52.50
2023-03-03T23:36:20.206Z,52.60
2023-03-03T23:41:24.815Z,52.80
2023-03-03T23:46:28.217Z,52.80
2023-03-03T23:51:33.266Z,52.90
2023-03-03T23:56:36.756Z,53.00
